Terminal Aerodrome Forecast
Issued by NWS Blacksburg, VA

Home | Current Version | Previous Version | Text Only | Print | Product List | Glossary On
Versions: 1 2 3 4 5 6 7 8 9 10 11 12 13 14 15 16 17 18 19 20 21
000
FTUS41 KRNK 281125
TAFDAN
TAF
KDAN 281125Z 2812/2912 22006KT P6SM BKN100
     FM281600 24008KT P6SM -RA OVC050
     FM281900 25006KT 6SM -RA SCT020 OVC035
     FM290400 32005KT 4SM -RA BR SCT008 OVC025=

USA.gov is the U.S. government's official web portal to all federal, state and local government web resources and services.